createdAt,value
2017-06-14T00:00:11.269Z,88.62
2017-06-14T00:05:07.199Z,87.95
2017-06-14T00:10:02.897Z,87.95
2017-06-14T00:14:58.803Z,89.34
2017-06-14T00:19:54.575Z,89.53
2017-06-14T00:24:50.218Z,90.48
2017-06-14T00:29:46.019Z,90.87
2017-06-14T00:34:41.943Z,90.77
2017-06-14T00:39:38.866Z,90.48
2017-06-14T00:44:34.385Z,90.77
2017-06-14T00:49:30.293Z,90.48
2017-06-14T00:54:26.003Z,90.06
2017-06-14T00:59:21.978Z,91.54
2017-06-14T01:04:18.185Z,92.30
2017-06-14T01:09:13.818Z,92.69
2017-06-14T01:14:09.787Z,92.30
2017-06-14T01:19:05.808Z,93.26
2017-06-14T01:24:01.608Z,94.02
2017-06-14T01:28:57.371Z,93.93
2017-06-14T01:33:53.376Z,94.17
2017-06-14T01:38:49.894Z,94.31
2017-06-14T01:43:46.225Z,94.17
2017-06-14T01:48:41.559Z,94.84
2017-06-14T01:53:37.657Z,95.22
2017-06-14T01:58:33.474Z,95.03
2017-06-14T02:03:30.133Z,95.03
2017-06-14T02:08:25.684Z,96.27
2017-06-14T02:13:21.329Z,95.98
2017-06-14T02:18:17.369Z,95.03
2017-06-14T02:23:13.504Z,95.56
2017-06-14T02:28:09.913Z,95.08
2017-06-14T02:33:05.721Z,95.65
2017-06-14T02:38:02.322Z,96.13
2017-06-14T02:42:57.778Z,96.42
2017-06-14T02:47:53.882Z,97.08
2017-06-14T02:52:49.520Z,96.70
2017-06-14T02:57:45.247Z,96.61
2017-06-14T03:02:41.596Z,97.37
2017-06-14T03:07:36.970Z,97.37
2017-06-14T03:12:33.733Z,96.98
2017-06-14T03:17:29.179Z,97.18
2017-06-14T03:22:25.058Z,97.08
2017-06-14T03:27:22.566Z,95.84
2017-06-14T03:32:17.855Z,97.27
2017-06-14T03:37:13.992Z,96.98
2017-06-14T03:42:10.474Z,96.98
2017-06-14T03:47:06.085Z,97.03
2017-06-14T03:52:02.433Z,97.13
2017-06-14T03:56:58.283Z,97.66
2017-06-14T04:01:54.065Z,97.71
2017-06-14T04:06:51.200Z,97.80
2017-06-14T04:11:46.652Z,98.18
2017-06-14T04:16:42.616Z,97.27
2017-06-14T04:21:39.478Z,97.99
2017-06-14T04:26:34.982Z,98.85
2017-06-14T04:31:30.793Z,99.42
2017-06-14T04:36:26.935Z,97.08
2017-06-14T04:41:23.716Z,91.88
2017-06-14T04:46:21.459Z,88.33
2017-06-14T04:51:17.974Z,84.78
2017-06-14T04:56:15.831Z,81.60
2017-06-14T05:01:13.219Z,79.82
2017-06-14T05:06:10.429Z,80.11
2017-06-14T05:11:06.438Z,79.44
2017-06-14T05:16:03.259Z,77.11
2017-06-14T05:20:59.902Z,73.73
2017-06-14T05:25:56.672Z,72.83
2017-06-14T05:30:52.911Z,76.64
2017-06-14T05:35:49.125Z,77.88
2017-06-14T05:40:45.108Z,74.85
2017-06-14T05:45:41.390Z,78.38
2017-06-14T05:50:36.886Z,76.64
2017-06-14T05:55:33.951Z,72.13
2017-06-14T06:00:29.344Z,74.81
2017-06-14T06:05:24.424Z,80.07
2017-06-14T06:10:19.607Z,83.67
2017-06-14T06:15:15.112Z,84.34
2017-06-14T06:20:10.069Z,85.45
2017-06-14T06:25:06.914Z,84.88
2017-06-14T06:30:02.737Z,84.44
2017-06-14T06:34:58.476Z,83.38
2017-06-14T06:39:54.254Z,83.15
2017-06-14T06:44:50.393Z,83.49
2017-06-14T06:49:46.121Z,84.92
2017-06-14T06:54:43.112Z,84.49
2017-06-14T06:59:38.896Z,84.68
2017-06-14T07:04:34.911Z,82.48
2017-06-14T07:09:31.924Z,81.23
2017-06-14T07:14:27.634Z,82.38
2017-06-14T07:19:24.116Z,82.38
2017-06-14T07:24:19.983Z,81.85
2017-06-14T07:29:15.676Z,81.52
2017-06-14T07:34:11.758Z,81.81
2017-06-14T07:39:08.508Z,81.75
2017-06-14T07:44:04.846Z,78.72
2017-06-14T07:49:02.100Z,73.56
2017-06-14T07:54:03.316Z,69.56
2017-06-14T07:59:01.556Z,66.58
2017-06-14T08:03:58.738Z,65.08
2017-06-14T08:08:56.179Z,63.22
2017-06-14T08:13:53.561Z,59.62
2017-06-14T08:18:52.111Z,57.07
2017-06-14T08:23:48.812Z,54.79
2017-06-14T08:28:46.780Z,56.69
2017-06-14T08:33:43.128Z,56.79
2017-06-14T08:38:39.526Z,53.20
2017-06-14T08:43:36.395Z,49.68
2017-06-14T08:48:32.831Z,51.73
2017-06-14T08:53:28.911Z,54.82
2017-06-14T08:58:25.433Z,52.26
2017-06-14T09:03:21.525Z,52.19
2017-06-14T09:08:17.550Z,52.40
2017-06-14T09:13:14.005Z,50.40
2017-06-14T09:18:10.040Z,52.28
2017-06-14T09:23:05.834Z,55.05
2017-06-14T09:28:02.314Z,54.69
2017-06-14T09:32:59.745Z,52.23
2017-06-14T09:37:55.975Z,51.56
2017-06-14T09:42:52.346Z,51.68
2017-06-14T09:47:49.894Z,51.85
2017-06-14T09:52:45.741Z,51.29
2017-06-14T09:57:42.162Z,49.37
2017-06-14T10:02:37.761Z,52.23
2017-06-14T10:07:34.514Z,52.59
2017-06-14T10:12:30.081Z,53.48
2017-06-14T10:17:27.398Z,52.55
2017-06-14T10:22:22.734Z,54.11
2017-06-14T10:27:19.868Z,51.44
2017-06-14T10:32:16.558Z,50.43
2017-06-14T10:37:13.187Z,50.38
2017-06-14T10:42:08.446Z,54.86
2017-06-14T10:47:04.879Z,50.86
2017-06-14T10:52:00.978Z,49.60
2017-06-14T10:56:57.570Z,50.35
2017-06-14T11:01:53.617Z,51.15
2017-06-14T11:06:51.267Z,50.11
2017-06-14T11:11:47.324Z,48.64
2017-06-14T11:16:43.037Z,53.05
2017-06-14T11:21:39.637Z,49.17
2017-06-14T11:26:36.117Z,50.11
2017-06-14T11:31:32.566Z,48.88
2017-06-14T11:36:29.928Z,47.96
2017-06-14T11:41:29.136Z,49.27
2017-06-14T11:46:25.215Z,48.18
2017-06-14T11:51:23.055Z,48.18
2017-06-14T11:56:20.288Z,47.52
2017-06-14T12:01:16.593Z,44.12
2017-06-14T12:06:12.417Z,40.75
2017-06-14T12:11:09.485Z,42.44
2017-06-14T12:16:05.494Z,42.00
2017-06-14T12:21:03.238Z,42.83
2017-06-14T12:25:57.995Z,44.07
2017-06-14T12:30:53.417Z,44.50
2017-06-14T12:35:49.808Z,43.87
2017-06-14T12:40:47.146Z,42.44
2017-06-14T12:50:44.248Z,44.57
2017-06-14T12:55:40.067Z,44.10
2017-06-14T13:00:36.425Z,44.54
2017-06-14T13:05:32.422Z,46.70
2017-06-14T13:10:27.321Z,46.63
2017-06-14T13:15:23.117Z,44.53
2017-06-14T13:20:18.723Z,44.31
2017-06-14T13:25:14.886Z,44.21
2017-06-14T13:30:10.397Z,46.84
2017-06-14T13:35:14.995Z,41.56
2017-06-14T13:40:09.355Z,41.83
2017-06-14T13:45:05.669Z,41.14
2017-06-14T13:50:02.322Z,43.80
2017-06-14T13:54:58.481Z,44.46
2017-06-14T13:59:53.805Z,45.62
2017-06-14T14:04:50.249Z,45.74
2017-06-14T14:09:45.026Z,44.09
2017-06-14T14:14:40.378Z,45.42
2017-06-14T14:19:35.516Z,46.47
2017-06-14T14:24:30.767Z,46.49
2017-06-14T14:29:26.471Z,47.53
2017-06-14T14:34:22.150Z,47.91
2017-06-14T14:39:17.967Z,48.01
2017-06-14T14:44:14.726Z,46.95
2017-06-14T14:49:10.259Z,46.66
2017-06-14T14:54:06.032Z,47.05
2017-06-14T14:59:01.792Z,46.17
2017-06-14T15:03:57.909Z,43.08
2017-06-14T15:08:53.369Z,45.21
2017-06-14T15:13:49.147Z,44.92
2017-06-14T15:18:45.076Z,43.66
2017-06-14T15:23:41.019Z,45.21
2017-06-14T15:28:37.455Z,44.15
2017-06-14T15:33:33.493Z,43.47
2017-06-14T15:38:30.284Z,44.24
2017-06-14T15:43:25.834Z,43.28
2017-06-14T15:48:21.835Z,43.85
2017-06-14T15:53:17.790Z,44.24
2017-06-14T15:58:13.877Z,43.95
2017-06-14T16:03:09.789Z,43.30
2017-06-14T16:08:05.971Z,43.28
2017-06-14T16:13:01.875Z,42.60
2017-06-14T16:17:58.905Z,42.12
2017-06-14T16:22:54.691Z,43.18
2017-06-14T16:27:50.602Z,45.11
2017-06-14T16:32:47.685Z,44.94
2017-06-14T16:37:43.651Z,45.40
2017-06-14T16:42:39.640Z,45.59
2017-06-14T16:47:36.304Z,43.85
2017-06-14T16:52:32.240Z,44.43
2017-06-14T16:57:28.201Z,44.63
2017-06-14T17:02:24.033Z,43.57
2017-06-14T17:07:20.053Z,42.02
2017-06-14T17:12:17.293Z,43.66
2017-06-14T17:17:12.888Z,45.40
2017-06-14T17:22:08.757Z,43.66
2017-06-14T17:27:04.901Z,45.21
2017-06-14T17:32:01.221Z,45.28
2017-06-14T17:36:56.836Z,45.96
2017-06-14T17:41:53.239Z,47.89
2017-06-14T17:46:49.123Z,46.92
2017-06-14T17:51:44.892Z,47.02
2017-06-14T17:56:40.878Z,46.83
2017-06-14T18:01:36.707Z,47.70
2017-06-14T18:06:32.562Z,46.73
2017-06-14T18:11:28.587Z,48.47
2017-06-14T18:16:24.576Z,48.18
2017-06-14T18:21:20.454Z,46.44
2017-06-14T18:26:16.446Z,48.37
2017-06-14T18:31:12.535Z,48.54
2017-06-14T18:36:09.634Z,48.16
2017-06-14T18:41:05.165Z,48.35
2017-06-14T18:46:00.800Z,49.32
2017-06-14T18:50:57.972Z,49.48
2017-06-14T18:55:54.689Z,50.16
2017-06-14T19:00:51.122Z,49.96
2017-06-14T19:05:46.746Z,51.61
2017-06-14T19:10:42.550Z,51.77
2017-06-14T19:15:38.409Z,53.41
2017-06-14T19:20:34.230Z,53.22
2017-06-14T19:25:30.424Z,53.77
2017-06-14T19:30:27.106Z,54.93
2017-06-14T19:35:23.001Z,53.48
2017-06-14T19:40:19.377Z,53.77
2017-06-14T19:45:14.835Z,54.22
2017-06-14T19:50:11.946Z,55.48
2017-06-14T19:55:09.099Z,55.45
2017-06-14T20:00:04.407Z,55.55
2017-06-14T20:05:00.703Z,56.99
2017-06-14T20:09:56.675Z,56.70
2017-06-14T20:14:52.126Z,56.58
2017-06-14T20:19:48.280Z,57.92
2017-06-14T20:24:45.726Z,58.12
2017-06-14T20:29:41.423Z,59.17
2017-06-14T20:34:37.189Z,59.47
2017-06-14T20:39:34.153Z,59.63
2017-06-14T20:44:30.510Z,60.30
2017-06-14T20:49:26.243Z,61.16
2017-06-14T20:54:22.266Z,60.30
2017-06-14T20:59:19.144Z,61.07
2017-06-14T21:04:14.895Z,61.04
2017-06-14T21:09:10.694Z,61.91
2017-06-14T21:14:06.582Z,61.91
2017-06-14T21:19:02.367Z,62.58
2017-06-14T21:23:58.611Z,63.15
2017-06-14T21:28:54.712Z,62.77
2017-06-14T21:33:51.462Z,63.99
2017-06-14T21:38:47.159Z,64.47
2017-06-14T21:43:43.958Z,64.09
2017-06-14T21:48:39.643Z,64.28
2017-06-14T21:53:35.848Z,64.37
2017-06-14T21:58:31.403Z,65.62
2017-06-14T22:03:28.740Z,64.76
2017-06-14T22:08:24.255Z,65.81
2017-06-14T22:13:20.615Z,65.97
2017-06-14T22:18:16.331Z,66.55
2017-06-14T22:23:12.261Z,66.64
2017-06-14T22:28:08.007Z,67.03
2017-06-14T22:33:03.737Z,67.47
2017-06-14T22:37:59.400Z,68.44
2017-06-14T22:42:55.111Z,68.91
2017-06-14T22:47:51.252Z,68.73
2017-06-14T22:52:46.812Z,71.03
2017-06-14T22:57:43.061Z,70.74
2017-06-14T23:02:38.931Z,69.97
2017-06-14T23:07:35.728Z,70.61
2017-06-14T23:12:31.242Z,71.09
2017-06-14T23:17:27.262Z,71.03
2017-06-14T23:22:24.360Z,71.57
2017-06-14T23:27:20.101Z,72.63
2017-06-14T23:32:16.216Z,72.53
2017-06-14T23:37:11.937Z,73.20
2017-06-14T23:42:07.860Z,73.58
2017-06-14T23:47:03.804Z,74.22
2017-06-14T23:51:59.555Z,74.98
2017-06-14T23:56:55.512Z,75.95
